»·PEaware :: CGMWT KSEA-KPDX

CGMWT :: KSEA-KPDX

FLIGHT INFORMATION

Flight Status: Arrived
Operator: Unknown
More flights by this operator :: More flights under this callsign
Pilot: Konrad W. (32064)
Aircraft: Diamond DA-40
(DA40)
More flights by this aircraft type
Origin: KSEA Seattle-Tacoma Intl
United States
Destination: KPDX Portland Intl
United States
More flights between these airports :: More routes between these airports
Route: +
File this flight plan on PilotEdge
Remarks:
Altitude:
(Current/Filed)
0ft
Speed:
(Current/Filed)
0kts
Departed: 25-Oct-20 01:44 PM
Arrived: 25-Oct-20 03:19 PM
Distance/Time
Traveled:
112nm/1:34
Distance/Time
To Go:
Arrived

Flight Plot

Page will automatically refresh every two minutes.

Flight plan parsing failed; only flown route is shown


Map Options




Map Legend


Flown Route
Filed Route
Departure Airport
Arrival Airport
Navaid (VOR, NDB)
Fix

Horizontal Profiles

Position Reports

Time Latitude Longitude Heading Altitude Ground
Speed
25-Oct-20 13:36 47.437247 -122.299025 126 375ft 0kts
25-Oct-20 13:37 47.437247 -122.299025 126 375ft 0kts
25-Oct-20 13:38 47.437247 -122.299025 126 375ft 0kts
25-Oct-20 13:39 47.437609 -122.299665 287 375ft 15kts
25-Oct-20 13:40 47.435018 -122.305601 180 368ft 26kts
25-Oct-20 13:41 47.431165 -122.306895 296 360ft 0kts
25-Oct-20 13:42 47.431165 -122.306895 296 360ft 0kts
25-Oct-20 13:43 47.434635 -122.308046 0 366ft 55kts
25-Oct-20 13:44 47.457902 -122.307574 359 731ft 93kts
25-Oct-20 13:45 47.486021 -122.307236 359 1220ft 111kts
25-Oct-20 13:46 47.489044 -122.307206 359 1268ft 112kts
25-Oct-20 14:01 47.437247 -122.299025 126 375ft 0kts
25-Oct-20 14:02 47.437247 -122.299025 126 375ft 0kts
25-Oct-20 14:03 47.437247 -122.299025 126 375ft 0kts
25-Oct-20 14:04 47.437247 -122.299025 126 375ft 0kts
25-Oct-20 14:05 47.437247 -122.299025 126 375ft 0kts
25-Oct-20 14:06 47.437629 -122.300109 266 375ft 16kts
25-Oct-20 14:07 47.434800 -122.305602 179 367ft 22kts
25-Oct-20 14:08 47.431753 -122.306911 269 361ft 0kts
25-Oct-20 14:09 47.433232 -122.308056 359 363ft 38kts
25-Oct-20 14:10 47.456121 -122.308036 1 722ft 96kts
25-Oct-20 14:11 47.483163 -122.304195 13 1221ft 100kts
25-Oct-20 14:12 47.492449 -122.270504 93 1720ft 101kts
25-Oct-20 14:13 47.468560 -122.259980 181 2220ft 109kts
25-Oct-20 14:14 47.437468 -122.261396 181 2706ft 114kts
25-Oct-20 14:15 47.406754 -122.262805 181 3203ft 110kts
25-Oct-20 14:16 47.375060 -122.263954 181 3488ft 123kts
25-Oct-20 14:17 47.341468 -122.268037 201 3496ft 122kts
25-Oct-20 14:18 47.309931 -122.286265 201 3494ft 121kts
25-Oct-20 14:19 47.278500 -122.304355 201 3493ft 121kts
25-Oct-20 14:20 47.247062 -122.322365 201 3493ft 121kts
25-Oct-20 14:21 47.232177 -122.362103 263 3492ft 121kts
25-Oct-20 14:22 47.213484 -122.400734 220 3493ft 122kts
25-Oct-20 14:23 47.186902 -122.431075 217 3493ft 122kts
25-Oct-20 14:24 47.159994 -122.461261 217 3493ft 121kts
25-Oct-20 14:25 47.129597 -122.481476 194 3493ft 122kts
25-Oct-20 14:26 47.096702 -122.493056 193 3492ft 122kts
25-Oct-20 14:27 47.063719 -122.504581 193 3492ft 122kts
25-Oct-20 14:28 47.030685 -122.516136 193 3492ft 122kts
25-Oct-20 14:29 46.997631 -122.527692 193 3491ft 122kts
25-Oct-20 14:30 46.964650 -122.539219 193 3492ft 122kts
25-Oct-20 14:31 46.931612 -122.550762 194 3491ft 122kts
25-Oct-20 14:32 46.906981 -122.584306 230 3492ft 122kts
25-Oct-20 14:33 46.885142 -122.622424 230 3493ft 122kts
25-Oct-20 14:35 46.863373 -122.660411 230 3493ft 122kts
25-Oct-20 14:36 46.841487 -122.698497 230 3498ft 123kts
25-Oct-20 14:37 46.819433 -122.736794 230 3493ft 122kts
25-Oct-20 14:38 46.797315 -122.775153 230 3440ft 123kts
25-Oct-20 14:39 46.775308 -122.813249 230 3439ft 122kts
25-Oct-20 14:40 46.753394 -122.851140 230 3440ft 122kts
25-Oct-20 14:41 46.731286 -122.889307 231 3440ft 122kts
25-Oct-20 14:42 46.709264 -122.927286 230 3440ft 123kts
25-Oct-20 14:43 46.687138 -122.965373 230 3438ft 123kts
25-Oct-20 14:44 46.657104 -122.979987 176 3438ft 124kts
25-Oct-20 14:45 46.622645 -122.975518 174 3438ft 124kts
25-Oct-20 14:46 46.588309 -122.970790 174 3439ft 124kts
25-Oct-20 14:47 46.554000 -122.966131 174 3440ft 124kts
25-Oct-20 14:48 46.519791 -122.961494 174 3437ft 123kts
25-Oct-20 14:49 46.485795 -122.956900 174 3440ft 123kts
25-Oct-20 14:50 46.451782 -122.952320 174 3439ft 123kts
25-Oct-20 14:51 46.417816 -122.947747 174 3439ft 122kts
25-Oct-20 14:52 46.383817 -122.943174 174 3439ft 122kts
25-Oct-20 14:53 46.349830 -122.938612 174 3439ft 122kts
25-Oct-20 14:53 46.321557 -122.934822 174 3440ft 122kts
25-Oct-20 14:54 46.287593 -122.930276 174 3440ft 122kts
25-Oct-20 14:55 46.253762 -122.925751 174 3441ft 122kts
25-Oct-20 14:56 46.219931 -122.921235 174 3454ft 121kts
25-Oct-20 14:57 46.186226 -122.916732 174 3470ft 122kts
25-Oct-20 14:58 46.152833 -122.909483 156 3470ft 121kts
25-Oct-20 14:59 46.122862 -122.886914 150 3469ft 121kts
25-Oct-20 15:00 46.092317 -122.866367 159 3478ft 120kts
25-Oct-20 15:01 46.060792 -122.849471 159 3479ft 121kts
25-Oct-20 15:02 46.028925 -122.833606 166 3480ft 121kts
25-Oct-20 15:03 45.995894 -122.822459 167 3475ft 121kts
25-Oct-20 15:04 45.962797 -122.813033 168 3473ft 121kts
25-Oct-20 15:05 45.929590 -122.803656 168 3471ft 121kts
25-Oct-20 15:06 45.896351 -122.794400 167 3469ft 121kts
25-Oct-20 15:07 45.863050 -122.785324 167 3469ft 121kts
25-Oct-20 15:08 45.829807 -122.776519 167 3468ft 121kts
25-Oct-20 15:09 45.795787 -122.769108 168 3324ft 127kts
25-Oct-20 15:10 45.760917 -122.761010 169 3122ft 126kts
25-Oct-20 15:11 45.726455 -122.751682 156 2923ft 125kts
25-Oct-20 15:12 45.694980 -122.730225 147 2625ft 127kts
25-Oct-20 15:13 45.664730 -122.704399 147 2200ft 123kts
25-Oct-20 15:14 45.636598 -122.680207 147 1601ft 109kts
25-Oct-20 15:15 45.616400 -122.651750 119 1005ft 93kts
25-Oct-20 15:16 45.604124 -122.619428 118 451ft 92kts
25-Oct-20 15:17 45.593033 -122.590985 119 37ft 54kts
25-Oct-20 15:18 45.591274 -122.589775 120 36ft 30kts
25-Oct-20 15:19 45.586047 -122.576721 180 35ft 13kts
25-Oct-20 15:20 45.585482 -122.578194 345 34ft 0kts
25-Oct-20 15:21 45.585482 -122.578194 345 34ft 0kts
25-Oct-20 15:22 45.585482 -122.578194 345 34ft 0kts
25-Oct-20 15:23 45.585482 -122.578194 345 34ft 0kts
25-Oct-20 15:24 45.585482 -122.578194 345 34ft 0kts
25-Oct-20 15:25 45.585482 -122.578194 345 34ft 0kts

Navigation Log

Ident Type
Flight plan parsing failed, navigation log unavailable